Time;durP1;ratioP1;P1;durP2;ratioP2;P2;SDS_P1;SDS_P2;PMS_P1;PMS_P2;Temp;Humidity;BMP_temperature;BMP_pressure;BME280_temperature;BME280_humidity;BME280_pressure;Samples;Min_cycle;Max_cycle;Signal;HPM_P1;HPM_P2
2023/06/10 00:00:55;;;;;;;12.97;4.93;;;;;;;12.59;100.00;101463.78;7375416;19;20415;-41
2023/06/10 00:03:26;;;;;;;16.03;5.53;;;;;;;12.57;100.00;101468.91;7401578;19;20432;-40
2023/06/10 00:05:56;;;;;;;9.57;4.83;;;;;;;12.58;100.00;101473.25;7376450;19;20427;-41
2023/06/10 00:08:31;;;;;;;11.03;4.80;;;;;;;12.53;100.00;101479.94;7400714;19;20404;-40
2023/06/10 00:11:00;;;;;;;10.20;4.60;;;;;;;12.50;100.00;101475.50;7379029;19;20529;-41
2023/06/10 00:13:30;;;;;;;13.67;5.80;;;;;;;12.56;100.00;101488.72;7401724;19;20401;-40
2023/06/10 00:15:59;;;;;;;9.67;4.57;;;;;;;12.49;100.00;101486.66;7378156;19;20509;-41
2023/06/10 00:18:31;;;;;;;12.50;4.60;;;;;;;12.47;100.00;101490.00;7398363;19;20754;-41
2023/06/10 00:21:04;;;;;;;11.03;5.10;;;;;;;12.41;100.00;101490.63;7375428;19;20785;-41
2023/06/10 00:23:37;;;;;;;11.97;5.03;;;;;;;12.49;100.00;101497.03;7388570;19;20405;-42
2023/06/10 00:26:07;;;;;;;8.67;4.70;;;;;;;12.43;100.00;101492.44;7398584;19;20430;-41
2023/06/10 00:28:36;;;;;;;12.63;4.27;;;;;;;12.40;100.00;101494.00;7374282;19;20494;-41
2023/06/10 00:31:06;;;;;;;14.90;6.27;;;;;;;12.41;100.00;101490.63;7396945;19;20425;-38
2023/06/10 00:33:36;;;;;;;12.43;4.43;;;;;;;12.34;100.00;101497.19;7374948;19;20409;-37
2023/06/10 00:36:06;;;;;;;16.40;6.23;;;;;;;12.41;100.00;101493.22;7398925;19;20835;-40
2023/06/10 00:38:40;;;;;;;11.57;4.43;;;;;;;12.30;100.00;101490.09;7373261;19;20406;-38
2023/06/10 00:41:09;;;;;;;10.27;4.73;;;;;;;12.25;100.00;101491.59;7397264;19;20413;-39
2023/06/10 00:43:39;;;;;;;12.03;4.70;;;;;;;12.23;100.00;101494.13;7372591;19;20415;-46
2023/06/10 00:46:09;;;;;;;7.90;3.70;;;;;;;12.23;100.00;101501.88;7397463;19;20421;-39
2023/06/10 00:48:39;;;;;;;7.70;4.60;;;;;;;12.18;100.00;101500.78;7369971;19;20405;-39
2023/06/10 00:51:08;;;;;;;8.13;3.90;;;;;;;12.13;100.00;101497.06;7396247;19;20771;-38
2023/06/10 00:53:42;;;;;;;13.07;4.73;;;;;;;12.10;100.00;101502.97;7372596;19;20430;-40
2023/06/10 00:56:12;;;;;;;9.13;3.60;;;;;;;11.97;100.00;101506.69;7396313;19;20412;-38
2023/06/10 00:58:41;;;;;;;12.67;4.60;;;;;;;11.89;100.00;101503.72;7373209;19;20432;-40
2023/06/10 01:01:13;;;;;;;8.67;3.70;;;;;;;12.04;100.00;101500.09;7395341;19;20488;-44
2023/06/10 01:03:42;;;;;;;13.27;4.33;;;;;;;12.03;100.00;101498.31;7373964;19;20494;-40
2023/06/10 01:06:19;;;;;;;12.00;4.43;;;;;;;12.00;100.00;101505.94;7397362;19;20420;-38
2023/06/10 01:08:56;;;;;;;10.77;4.47;;;;;;;11.95;100.00;101497.94;7371986;19;20447;-37
2023/06/10 01:11:29;;;;;;;10.33;4.43;;;;;;;12.01;100.00;101487.88;7395913;19;20821;-39
2023/06/10 01:14:00;;;;;;;9.23;3.90;;;;;;;12.08;100.00;101483.03;7373556;19;20404;-39
2023/06/10 01:16:30;;;;;;;13.57;4.57;;;;;;;12.06;100.00;101484.66;7396265;19;20399;-41
2023/06/10 01:19:00;;;;;;;7.73;4.43;;;;;;;12.11;100.00;101486.66;7371772;19;20409;-38
2023/06/10 01:21:32;;;;;;;8.33;4.50;;;;;;;12.12;100.00;101490.13;7393932;19;20410;-39
2023/06/10 01:24:07;;;;;;;15.37;4.63;;;;;;;12.09;100.00;101489.97;7371451;19;20875;-41
2023/06/10 01:26:38;;;;;;;7.43;3.67;;;;;;;12.09;100.00;101487.38;7393395;19;20775;-38
2023/06/10 01:29:12;;;;;;;6.63;3.50;;;;;;;12.08;100.00;101495.97;7372280;19;20428;-40
2023/06/10 01:31:45;;;;;;;10.33;4.30;;;;;;;12.18;100.00;101497.28;7395080;19;20484;-39
2023/06/10 01:34:17;;;;;;;8.80;4.30;;;;;;;12.12;100.00;101493.63;7373348;19;20415;-39
2023/06/10 01:36:51;;;;;;;6.90;4.20;;;;;;;12.06;100.00;101495.91;7394322;19;20476;-39
2023/06/10 01:39:24;;;;;;;13.67;4.43;;;;;;;11.99;100.00;101496.38;7372331;19;20448;-38
2023/06/10 01:41:54;;;;;;;7.60;3.63;;;;;;;11.99;100.00;101497.28;7395287;19;20412;-39
2023/06/10 01:44:25;;;;;;;8.67;3.90;;;;;;;11.92;100.00;101508.16;7369836;19;20544;-39
2023/06/10 01:46:54;;;;;;;10.77;4.10;;;;;;;11.90;100.00;101502.03;7396866;19;20429;-39
2023/06/10 01:49:26;;;;;;;12.17;4.07;;;;;;;11.79;100.00;101510.94;7370276;19;20432;-39
2023/06/10 01:51:58;;;;;;;10.20;4.10;;;;;;;11.78;100.00;101506.59;7395577;19;20440;-39
2023/06/10 01:54:27;;;;;;;13.77;4.40;;;;;;;11.75;100.00;101504.75;7367652;19;20522;-39
2023/06/10 01:56:57;;;;;;;11.67;3.90;;;;;;;11.69;100.00;101497.56;7395575;19;20416;-39
2023/06/10 01:59:27;;;;;;;10.10;4.30;;;;;;;11.73;100.00;101498.59;7370894;19;20438;-40
2023/06/10 02:01:56;;;;;;;8.77;3.37;;;;;;;11.79;100.00;101500.59;7395753;19;20423;-41
2023/06/10 02:04:26;;;;;;;9.07;4.30;;;;;;;11.70;100.00;101501.91;7371571;19;20440;-39
2023/06/10 02:06:58;;;;;;;7.17;3.67;;;;;;;11.63;100.00;101489.50;7394546;19;20473;-39
2023/06/10 02:09:28;;;;;;;9.40;3.73;;;;;;;11.55;100.00;101490.84;7370058;19;20423;-40
2023/06/10 02:11:57;;;;;;;9.30;4.33;;;;;;;11.37;100.00;101489.09;7395381;19;20415;-39
2023/06/10 02:14:27;;;;;;;9.53;3.60;;;;;;;11.32;100.00;101495.72;7370275;19;20530;-40
2023/06/10 02:16:57;;;;;;;7.80;3.30;;;;;;;11.32;100.00;101496.63;7394979;19;20495;-39
2023/06/10 02:19:27;;;;;;;9.23;3.70;;;;;;;11.24;100.00;101494.47;7369368;19;20438;-39
2023/06/10 02:21:59;;;;;;;8.13;3.37;;;;;;;11.14;100.00;101487.94;7395204;19;20401;-43
2023/06/10 02:24:29;;;;;;;10.57;4.37;;;;;;;11.11;100.00;101485.19;7369758;19;20437;-39
2023/06/10 02:27:00;;;;;;;10.70;4.20;;;;;;;11.18;100.00;101479.56;7393462;19;20410;-39
2023/06/10 02:29:29;;;;;;;9.43;3.80;;;;;;;11.17;100.00;101480.34;7368378;19;20451;-39
2023/06/10 02:31:59;;;;;;;6.27;3.40;;;;;;;11.04;100.00;101484.88;7394420;19;20486;-40
2023/06/10 02:34:29;;;;;;;7.40;3.77;;;;;;;11.02;100.00;101488.22;7369454;19;20531;-40
2023/06/10 02:37:01;;;;;;;9.17;4.13;;;;;;;11.01;100.00;101476.97;7396186;19;20417;-39
2023/06/10 02:39:30;;;;;;;12.37;4.87;;;;;;;10.99;100.00;101480.28;7370161;19;20979;-39
2023/06/10 02:42:00;;;;;;;14.00;3.87;;;;;;;10.94;100.00;101472.31;7393632;19;20401;-41
2023/06/10 02:44:30;;;;;;;13.50;3.90;;;;;;;10.92;100.00;101477.38;7368677;19;20778;-39
2023/06/10 02:46:59;;;;;;;13.67;4.77;;;;;;;10.98;100.00;101475.94;7393520;19;20526;-39
2023/06/10 02:49:29;;;;;;;8.33;4.97;;;;;;;11.06;100.00;101480.69;7367796;19;20443;-40
2023/06/10 02:52:01;;;;;;;7.03;3.57;;;;;;;10.91;100.00;101479.88;7393948;19;20435;-40
2023/06/10 02:54:31;;;;;;;12.63;3.80;;;;;;;10.96;100.00;101480.16;7368300;19;20503;-41
2023/06/10 02:57:00;;;;;;;12.17;4.00;;;;;;;10.83;100.00;101476.94;7393789;19;20501;-39
2023/06/10 02:59:30;;;;;;;9.20;4.63;;;;;;;10.77;100.00;101486.94;7368309;19;20429;-41
2023/06/10 03:02:01;;;;;;;9.83;5.30;;;;;;;10.87;100.00;101493.47;7393555;19;20399;-41
2023/06/10 03:04:31;;;;;;;13.40;5.83;;;;;;;10.89;100.00;101482.41;7368924;19;20432;-39
2023/06/10 03:07:07;;;;;;;12.30;4.67;;;;;;;10.88;100.00;101483.19;7399727;19;20406;-41
2023/06/10 03:09:36;;;;;;;12.10;4.40;;;;;;;10.83;100.00;101481.19;7375901;19;20431;-40
2023/06/10 03:12:07;;;;;;;19.60;6.80;;;;;;;10.87;100.00;101478.84;7403122;19;20417;-41
2023/06/10 03:14:38;;;;;;;7.57;4.30;;;;;;;10.86;100.00;101484.81;7376738;19;20517;-40
2023/06/10 03:17:08;;;;;;;10.37;5.03;;;;;;;10.90;100.00;101479.03;7399266;19;20417;-39
2023/06/10 03:19:37;;;;;;;7.30;3.67;;;;;;;11.00;100.00;101492.38;7374114;19;20439;-40
2023/06/10 03:22:14;;;;;;;11.87;4.53;;;;;;;11.08;100.00;101493.69;7399954;19;20487;-38
2023/06/10 03:24:46;;;;;;;10.63;5.00;;;;;;;11.02;100.00;101502.00;7375955;19;20536;-41
2023/06/10 03:27:16;;;;;;;12.13;4.50;;;;;;;10.95;100.00;101502.47;7401879;19;20508;-39
2023/06/10 03:29:46;;;;;;;10.60;3.63;;;;;;;10.87;100.00;101504.66;7376091;19;21008;-40
2023/06/10 03:32:15;;;;;;;11.77;4.40;;;;;;;10.92;100.00;101516.13;7401373;19;20779;-40
2023/06/10 03:34:47;;;;;;;10.50;4.43;;;;;;;10.89;100.00;101508.22;7375080;19;20886;-42
2023/06/10 03:37:19;;;;;;;9.80;4.43;;;;;;;10.93;100.00;101499.81;7402644;19;20428;-39
2023/06/10 03:39:49;;;;;;;9.57;4.63;;;;;;;10.99;100.00;101500.94;7376702;19;20844;-39
2023/06/10 03:42:18;;;;;;;9.67;5.27;;;;;;;10.99;100.00;101501.84;7400410;19;20421;-42
2023/06/10 03:44:48;;;;;;;14.47;3.60;;;;;;;10.98;100.00;101512.97;7374266;19;20458;-39
2023/06/10 03:47:17;;;;;;;13.63;4.30;;;;;;;10.98;100.00;101510.38;7402316;19;20494;-40
2023/06/10 03:49:47;;;;;;;12.23;4.50;;;;;;;11.04;100.00;101507.25;7373956;19;20430;-40
2023/06/10 03:52:20;;;;;;;89.70;47.13;;;;;;;11.38;100.00;101506.38;7402307;19;20926;-38
2023/06/10 03:54:50;;;;;;;42.43;19.70;;;;;;;11.66;100.00;101504.28;7374273;19;20448;-39
2023/06/10 03:57:19;;;;;;;92.60;45.37;;;;;;;11.94;100.00;101501.34;7401204;19;20411;-39
2023/06/10 03:59:49;;;;;;;40.13;21.37;;;;;;;11.84;100.00;101510.34;7374109;19;20450;-41
2023/06/10 04:02:18;;;;;;;68.57;34.33;;;;;;;12.02;100.00;101515.50;7399051;19;20494;-39
2023/06/10 04:04:48;;;;;;;53.07;27.20;;;;;;;12.08;100.00;101524.41;7373867;19;20779;-40
2023/06/10 04:07:21;;;;;;;20.57;8.87;;;;;;;11.98;100.00;101539.47;7398857;19;20419;-40
2023/06/10 04:09:51;;;;;;;21.83;10.30;;;;;;;12.05;100.00;101545.84;7374267;19;20455;-40
2023/06/10 04:12:20;;;;;;;25.00;12.83;;;;;;;12.21;100.00;101554.34;7399176;19;20428;-37
2023/06/10 04:14:51;;;;;;;29.63;15.83;;;;;;;12.33;100.00;101574.75;7374369;19;20794;-39
2023/06/10 04:17:20;;;;;;;17.47;9.10;;;;;;;12.43;100.00;101579.56;7397073;19;20424;-39
2023/06/10 04:19:50;;;;;;;17.23;7.57;;;;;;;12.64;100.00;101599.47;7374660;19;20485;-38
2023/06/10 04:22:22;;;;;;;7.70;3.90;;;;;;;12.46;100.00;101597.78;7401850;19;20408;-38
2023/06/10 04:24:52;;;;;;;14.20;5.17;;;;;;;12.19;100.00;101608.59;7374730;19;20522;-40
2023/06/10 04:27:21;;;;;;;13.50;3.53;;;;;;;12.08;100.00;101612.34;7398500;19;20396;-40
2023/06/10 04:29:52;;;;;;;11.83;3.10;;;;;;;12.02;100.00;101618.97;7377483;19;20450;-41
2023/06/10 04:32:21;;;;;;;6.90;3.33;;;;;;;12.03;100.00;101601.75;7404472;19;20415;-42
2023/06/10 04:34:51;;;;;;;8.97;3.47;;;;;;;12.02;100.00;101600.84;7376475;19;20842;-44
2023/06/10 04:37:23;;;;;;;8.83;3.13;;;;;;;12.01;100.00;101601.69;7401206;19;20418;-43
2023/06/10 04:39:53;;;;;;;9.90;3.73;;;;;;;12.09;100.00;101608.94;7375630;19;20431;-44
2023/06/10 04:42:22;;;;;;;11.90;3.57;;;;;;;12.16;100.00;101605.88;7402972;19;20419;-44
2023/06/10 04:44:52;;;;;;;11.37;3.73;;;;;;;12.21;100.00;101599.22;7374313;19;20449;-49
2023/06/10 04:47:22;;;;;;;8.50;3.30;;;;;;;12.21;100.00;101598.34;7399656;19;20437;-47
2023/06/10 04:49:51;;;;;;;6.07;3.20;;;;;;;12.29;100.00;101597.91;7374322;19;20513;-45
2023/06/10 04:52:24;;;;;;;14.73;3.40;;;;;;;12.39;100.00;101594.06;7398234;19;20406;-46
2023/06/10 04:54:53;;;;;;;11.37;3.23;;;;;;;12.47;100.00;101591.84;7373437;19;20426;-51
2023/06/10 04:57:23;;;;;;;9.47;3.47;;;;;;;12.56;100.00;101596.53;7398011;19;20497;-52
2023/06/10 04:59:53;;;;;;;13.33;2.90;;;;;;;12.66;100.00;101598.75;7377099;19;20523;-49
2023/06/10 05:02:22;;;;;;;7.93;2.60;;;;;;;12.76;100.00;101594.88;7402155;19;20471;-46
2023/06/10 05:04:53;;;;;;;8.97;3.43;;;;;;;12.92;100.00;101580.06;7375747;19;20446;-50
2023/06/10 05:07:25;;;;;;;14.70;6.20;;;;;;;12.98;100.00;101590.69;7401892;19;20478;-48
2023/06/10 05:09:54;;;;;;;18.90;4.53;;;;;;;13.00;100.00;101589.06;7376092;19;20453;-48
2023/06/10 05:12:24;;;;;;;15.33;3.57;;;;;;;12.99;100.00;101597.66;7399801;19;20417;-49
2023/06/10 05:14:54;;;;;;;10.10;3.40;;;;;;;13.01;100.00;101593.41;7375175;19;20443;-48
2023/06/10 05:17:25;;;;;;;14.93;3.30;;;;;;;13.06;100.00;101599.69;7396984;19;20748;-45
2023/06/10 05:19:55;;;;;;;8.70;2.77;;;;;;;13.10;100.00;101606.78;7373687;19;20438;-47
2023/06/10 05:22:28;;;;;;;16.53;4.30;;;;;;;13.20;100.00;101607.19;7398315;19;20397;-50
2023/06/10 05:24:57;;;;;;;8.93;3.20;;;;;;;13.23;100.00;101617.72;7374038;19;20902;-49
2023/06/10 05:27:27;;;;;;;9.00;4.37;;;;;;;13.32;100.00;101618.09;7396607;19;20486;-51
2023/06/10 05:29:56;;;;;;;15.87;7.20;;;;;;;13.57;100.00;101624.38;7374250;19;20795;-45
2023/06/10 05:32:26;;;;;;;11.63;4.33;;;;;;;13.80;100.00;101621.00;7397492;19;20409;-40
2023/06/10 05:34:55;;;;;;;24.13;13.27;;;;;;;13.81;100.00;101623.66;7372908;19;20458;-40
2023/06/10 05:37:28;;;;;;;11.63;3.70;;;;;;;13.84;100.00;101634.16;7395623;19;20416;-39
2023/06/10 05:39:57;;;;;;;19.27;8.07;;;;;;;13.85;100.00;101640.25;7372946;19;20448;-39
2023/06/10 05:42:27;;;;;;;10.67;4.50;;;;;;;13.96;100.00;101649.38;7396492;19;20422;-40
2023/06/10 05:44:56;;;;;;;34.23;19.90;;;;;;;14.10;100.00;101657.72;7372556;19;20407;-38
2023/06/10 05:47:26;;;;;;;12.53;6.73;;;;;;;14.24;100.00;101660.00;7396486;19;20411;-40
2023/06/10 05:49:55;;;;;;;8.83;3.40;;;;;;;14.26;100.00;101668.75;7371792;19;20434;-40
2023/06/10 05:52:28;;;;;;;24.10;12.70;;;;;;;14.51;100.00;101669.75;7395469;19;20500;-39
2023/06/10 05:54:59;;;;;;;15.50;7.53;;;;;;;14.53;100.00;101670.69;7372163;19;20486;-39
2023/06/10 05:57:28;;;;;;;11.93;4.50;;;;;;;14.50;100.00;101674.03;7395080;19;20441;-40
2023/06/10 05:59:58;;;;;;;9.23;2.33;;;;;;;14.45;100.00;101680.75;7371750;19;20442;-39
2023/06/10 06:02:28;;;;;;;15.63;5.90;;;;;;;14.65;100.00;101678.06;7394778;19;20411;-40
2023/06/10 06:04:57;;;;;;;8.33;2.70;;;;;;;14.68;100.00;101692.06;7373708;19;20435;-39
2023/06/10 06:07:30;;;;;;;9.23;2.63;;;;;;;14.69;100.00;101696.44;7397303;19;20414;-39
2023/06/10 06:09:59;;;;;;;8.03;2.73;;;;;;;14.76;100.00;101697.59;7371452;19;20423;-39
2023/06/10 06:12:29;;;;;;;9.60;2.90;;;;;;;14.80;100.00;101693.41;7395333;19;20416;-40
2023/06/10 06:14:58;;;;;;;9.47;2.90;;;;;;;14.77;100.00;101690.69;7371594;19;20430;-41
2023/06/10 06:17:28;;;;;;;9.70;2.87;;;;;;;14.79;100.00;101694.22;7394705;19;20419;-39
2023/06/10 06:19:58;;;;;;;7.80;2.27;;;;;;;14.83;100.00;101693.53;7371429;19;20454;-39
2023/06/10 06:22:30;;;;;;;12.03;2.30;;;;;;;14.83;100.00;101699.59;7398416;19;20478;-40
2023/06/10 06:24:59;;;;;;;9.17;2.70;;;;;;;14.94;100.00;101712.13;7371413;19;20450;-38
2023/06/10 06:27:29;;;;;;;19.37;4.40;;;;;;;15.02;100.00;101717.63;7393786;19;20443;-40
2023/06/10 06:29:59;;;;;;;9.50;3.33;;;;;;;15.08;100.00;101712.69;7370463;19;20502;-40
2023/06/10 06:32:29;;;;;;;12.20;3.23;;;;;;;15.15;100.00;101716.38;7395996;19;20756;-43
2023/06/10 06:34:59;;;;;;;10.30;2.80;;;;;;;15.25;100.00;101728.91;7370456;19;20503;-41
2023/06/10 06:37:31;;;;;;;15.53;3.60;;;;;;;15.33;100.00;101737.00;7395341;19;20969;-39
2023/06/10 06:40:01;;;;;;;13.60;3.27;;;;;;;15.43;100.00;101746.03;7370205;19;20535;-40
2023/06/10 06:42:33;;;;;;;8.37;3.63;;;;;;;15.48;100.00;101736.69;7400832;19;20403;-41
2023/06/10 06:45:02;;;;;;;8.50;2.37;;;;;;;15.55;100.00;101737.78;7377037;19;20424;-41
2023/06/10 06:47:32;;;;;;;8.33;1.90;;;;;;;15.64;100.00;101743.34;7400381;19;20408;-39
2023/06/10 06:50:02;;;;;;;12.67;3.00;;;;;;;15.76;100.00;101749.00;7378175;19;20428;-41
2023/06/10 06:52:34;;;;;;;12.53;2.97;;;;;;;15.83;100.00;101744.03;7399937;19;20497;-40
2023/06/10 06:55:03;;;;;;;8.60;2.40;;;;;;;15.95;100.00;101744.50;7378399;19;20498;-43
2023/06/10 06:57:33;;;;;;;12.20;3.00;;;;;;;16.02;100.00;101740.38;7399105;19;20432;-45
2023/06/10 07:00:02;;;;;;;13.53;2.73;;;;;;;16.08;100.00;101740.56;7376930;19;20427;-39
2023/06/10 07:02:33;;;;;;;9.77;2.47;;;;;;;16.07;100.00;101741.41;7401087;19;20396;-38
2023/06/10 07:05:03;;;;;;;6.90;2.57;;;;;;;16.15;100.00;101741.69;7376843;19;20446;-42
2023/06/10 07:07:35;;;;;;;8.47;2.47;;;;;;;16.08;100.00;101745.78;7402319;19;20768;-40
2023/06/10 07:10:05;;;;;;;8.47;2.47;;;;;;;16.07;100.00;101741.41;7377293;19;20867;-38
2023/06/10 07:12:35;;;;;;;9.87;2.23;;;;;;;16.16;100.00;101739.13;7402670;19;20421;-38
2023/06/10 07:15:05;;;;;;;7.20;2.43;;;;;;;16.27;100.00;101742.09;7377349;19;20951;-42
2023/06/10 07:17:35;;;;;;;6.30;2.20;;;;;;;16.39;100.00;101745.94;7398974;19;20405;-41
2023/06/10 07:20:05;;;;;;;5.77;2.33;;;;;;;16.50;100.00;101755.00;7376096;19;20446;-41
2023/06/10 07:22:38;;;;;;;8.43;3.20;;;;;;;16.54;100.00;101758.59;7404003;19;20994;-46
2023/06/10 07:25:09;;;;;;;7.60;2.03;;;;;;;16.60;100.00;101762.28;7377121;19;20932;-41
2023/06/10 07:27:39;;;;;;;7.70;2.23;;;;;;;16.75;100.00;101750.59;7401645;19;20395;-41
2023/06/10 07:30:10;;;;;;;13.23;2.60;;;;;;;16.83;100.00;101756.91;7376437;19;20439;-44
2023/06/10 07:32:40;;;;;;;8.73;2.57;;;;;;;16.87;100.00;101769.22;7400089;19;20842;-40
2023/06/10 07:35:11;;;;;;;12.57;3.00;;;;;;;16.87;100.00;101782.25;7376983;19;20470;-43
2023/06/10 07:37:44;;;;;;;6.80;2.40;;;;;;;16.91;100.00;101772.81;7399414;19;20412;-43
2023/06/10 07:40:14;;;;;;;8.87;3.00;;;;;;;16.99;100.00;101773.06;7376329;19;20429;-41
2023/06/10 07:42:43;;;;;;;10.73;2.93;;;;;;;17.11;100.00;101781.28;7401941;19;20407;-40
2023/06/10 07:45:13;;;;;;;6.40;1.90;;;;;;;17.20;100.00;101788.53;7376286;19;20422;-43
2023/06/10 07:47:42;;;;;;;10.40;2.80;;;;;;;17.26;100.00;101798.25;7400433;19;20415;-43
2023/06/10 07:50:12;;;;;;;10.47;2.80;;;;;;;17.35;100.00;101800.25;7376212;19;20447;-41
2023/06/10 07:52:44;;;;;;;9.50;2.97;;;;;;;17.37;100.00;101802.06;7398509;19;20412;-40
2023/06/10 07:55:14;;;;;;;8.80;2.63;;;;;;;17.36;100.00;101802.91;7375042;19;20450;-41
2023/06/10 07:57:43;;;;;;;7.93;2.53;;;;;;;17.40;100.00;101802.16;7398552;19;20487;-40
2023/06/10 08:00:14;;;;;;;10.73;2.33;;;;;;;17.38;100.00;101802.97;7376702;19;20474;-40
2023/06/10 08:02:43;;;;;;;7.63;2.33;;;;;;;17.60;100.00;101798.38;7401866;19;20419;-41
2023/06/10 08:05:13;;;;;;;56.93;32.77;;;;;;;17.71;100.00;101798.69;7376274;19;20441;-42
2023/06/10 08:07:46;;;;;;;18.20;6.43;;;;;;;17.80;100.00;101805.03;7400746;19;20874;-42
2023/06/10 08:10:16;;;;;;;7.87;2.93;;;;;;;17.97;100.00;101814.19;7376565;19;20453;-41
2023/06/10 08:12:46;;;;;;;7.10;3.07;;;;;;;18.03;100.00;101832.63;7402235;19;21064;-41
2023/06/10 08:15:15;;;;;;;15.53;3.40;;;;;;;18.06;100.00;101832.78;7376137;19;20447;-41
2023/06/10 08:17:45;;;;;;;9.80;3.10;;;;;;;18.28;100.00;101843.78;7400589;19;20931;-41
2023/06/10 08:20:15;;;;;;;15.43;5.80;;;;;;;18.47;100.00;101848.66;7371633;19;20435;-40
2023/06/10 08:22:47;;;;;;;13.20;6.70;;;;;;;18.46;100.00;101864.31;7397957;19;20416;-40
2023/06/10 08:25:16;;;;;;;18.53;5.40;;;;;;;18.51;100.00;101867.91;7375768;19;20447;-41
2023/06/10 08:27:46;;;;;;;10.80;3.90;;;;;;;18.61;100.00;101869.06;7399401;19;20499;-40
2023/06/10 08:30:16;;;;;;;11.47;3.73;;;;;;;18.70;100.00;101874.53;7375702;19;20431;-41
2023/06/10 08:32:45;;;;;;;9.47;3.90;;;;;;;18.81;100.00;101892.22;7399380;19;20943;-42
2023/06/10 08:35:15;;;;;;;10.40;3.73;;;;;;;18.75;100.00;101898.16;7375998;19;20427;-41
2023/06/10 08:37:47;;;;;;;10.03;3.40;;;;;;;18.70;100.00;101908.50;7401182;19;20422;-41
2023/06/10 08:40:17;;;;;;;11.00;4.37;;;;;;;18.91;100.00;101904.66;7375588;19;20434;-41
2023/06/10 08:42:51;;;;;;;8.20;3.17;;;;;;;19.03;100.00;101920.69;7398692;19;20407;-39
2023/06/10 08:45:21;;;;;;;7.27;3.00;;;;;;;19.06;100.00;101925.13;7374467;19;20451;-40
2023/06/10 08:47:53;;;;;;;6.60;3.50;;;;;;;19.14;100.00;101927.94;7400289;19;21078;-41
2023/06/10 08:50:24;;;;;;;7.77;3.00;;;;;;;19.18;100.00;101935.03;7374830;19;20451;-40
2023/06/10 08:53:00;;;;;;;12.20;4.23;;;;;;;19.29;100.00;101943.13;7399934;19;20395;-40
2023/06/10 08:55:32;;;;;;;7.63;3.60;;;;;;;19.45;100.00;101939.13;7375502;19;20832;-41
2023/06/10 08:58:02;;;;;;;9.00;3.60;;;;;;;19.63;100.00;101933.44;7398687;19;20989;-44
2023/06/10 09:00:33;;;;;;;10.90;4.23;;;;;;;19.69;100.00;101932.72;7375672;19;20460;-41
2023/06/10 09:03:03;;;;;;;14.37;4.27;;;;;;;19.75;100.00;101935.47;7401452;19;20428;-41
2023/06/10 09:05:36;;;;;;;8.03;3.33;;;;;;;19.80;100.00;101939.03;7373653;19;20495;-42
2023/06/10 09:08:09;;;;;;;10.83;3.37;;;;;;;19.77;100.00;101941.63;7401454;19;20407;-40
2023/06/10 09:10:38;;;;;;;10.17;3.53;;;;;;;19.91;100.00;101938.41;7373667;19;20434;-41
2023/06/10 09:13:08;;;;;;;9.37;4.00;;;;;;;19.87;100.00;101941.81;7399984;19;20433;-41
2023/06/10 09:15:40;;;;;;;11.73;3.63;;;;;;;19.83;100.00;101933.91;7375225;19;20455;-41
2023/06/10 09:18:09;;;;;;;9.63;4.03;;;;;;;19.98;100.00;101942.97;7401420;19;20766;-44
2023/06/10 09:20:41;;;;;;;13.43;4.23;;;;;;;20.15;100.00;101937.19;7374682;19;20451;-52
2023/06/10 09:23:13;;;;;;;8.67;3.73;;;;;;;20.33;100.00;101942.81;7401027;19;20416;-41
2023/06/10 09:25:43;;;;;;;13.03;4.00;;;;;;;20.43;100.00;101953.47;7373179;19;20466;-41
2023/06/10 09:28:16;;;;;;;14.87;3.43;;;;;;;20.54;100.00;101964.16;7400354;19;20407;-41
2023/06/10 09:30:45;;;;;;;8.87;3.57;;;;;;;20.61;100.00;101964.31;7374510;19;20475;-42
2023/06/10 09:33:16;;;;;;;9.67;3.33;;;;;;;20.62;100.00;101959.97;7403617;19;20408;-40
2023/06/10 09:35:50;;;;;;;13.60;3.43;;;;;;;20.60;100.00;101962.53;7374828;19;20454;-42
2023/06/10 09:38:25;;;;;;;13.87;4.70;;;;;;;20.74;100.00;101960.19;7392507;19;20431;-42
2023/06/10 09:40:56;;;;;;;8.33;3.33;;;;;;;20.85;100.00;101960.41;7374401;19;20811;-42
2023/06/10 09:43:26;;;;;;;11.10;3.87;;;;;;;20.78;100.00;101959.38;7400548;19;20408;-42
2023/06/10 09:45:58;;;;;;;7.43;3.40;;;;;;;20.91;100.00;101957.91;7372530;19;20985;-42
2023/06/10 09:48:28;;;;;;;13.80;4.70;;;;;;;20.84;100.00;101949.84;7398892;19;20769;-43
2023/06/10 09:50:58;;;;;;;11.27;4.47;;;;;;;20.88;100.00;101943.84;7376340;19;20518;-41
2023/06/10 09:53:30;;;;;;;9.77;3.23;;;;;;;21.12;100.00;101951.25;7399083;19;20416;-40
2023/06/10 09:56:00;;;;;;;15.37;3.80;;;;;;;21.30;100.00;101949.78;7376397;19;20507;-40
2023/06/10 09:58:37;;;;;;;12.23;5.20;;;;;;;21.26;100.00;101953.22;7396982;19;20426;-41
2023/06/10 10:01:08;;;;;;;12.00;4.77;;;;;;;21.21;100.00;101954.91;7377465;19;20454;-41
2023/06/10 10:03:46;;;;;;;22.50;10.13;;;;;;;21.33;100.00;101951.59;7375132;19;20415;-42
2023/06/10 10:06:16;;;;;;;9.40;3.30;;;;;;;21.18;100.00;101951.34;7398024;19;20407;-40
2023/06/10 10:08:50;;;;;;;9.03;3.37;;;;;;;21.41;100.00;101958.72;7373052;19;20763;-41
2023/06/10 10:11:21;;;;;;;15.63;6.50;;;;;;;21.54;100.00;101959.78;7397550;19;20408;-41
2023/06/10 10:13:52;;;;;;;14.20;4.53;;;;;;;21.78;100.00;101962.81;7375224;19;20414;-42
2023/06/10 10:16:24;;;;;;;10.60;4.67;;;;;;;21.92;100.00;101969.13;7396441;19;21189;-41
2023/06/10 10:18:58;;;;;;;9.53;4.43;;;;;;;21.99;100.00;101951.69;7374545;19;20918;-40
2023/06/10 10:21:29;;;;;;;11.67;4.07;;;;;;;21.98;100.00;101956.06;7397385;19;20884;-43
2023/06/10 10:24:07;;;;;;;10.77;4.73;;;;;;;21.92;100.00;101953.34;7376059;19;20419;-41
2023/06/10 10:26:38;;;;;;;11.60;3.90;;;;;;;22.15;100.00;101939.63;7397398;19;20437;-40
2023/06/10 10:29:12;;;;;;;7.00;3.03;;;;;;;22.36;100.00;101935.50;7376227;19;21771;-42
2023/06/10 10:31:45;;;;;;;13.50;4.77;;;;;;;22.44;100.00;101932.94;7397994;19;20403;-41
2023/06/10 10:34:17;;;;;;;15.83;4.10;;;;;;;22.31;100.00;101917.03;7377117;19;20403;-41
2023/06/10 10:36:47;;;;;;;9.57;3.40;;;;;;;22.20;100.00;101910.78;7399876;19;20527;-42
2023/06/10 10:39:20;;;;;;;29.97;15.10;;;;;;;22.41;100.00;101906.63;7374660;19;20467;-43
2023/06/10 10:41:50;;;;;;;259.73;169.63;;;;;;;22.52;100.00;101898.00;7397944;19;20407;-42
2023/06/10 10:44:20;;;;;;;27.30;13.67;;;;;;;22.62;100.00;101879.69;7373631;19;20435;-43
2023/06/10 10:46:53;;;;;;;13.57;6.27;;;;;;;22.73;100.00;101864.91;7397931;19;20403;-42
2023/06/10 10:49:25;;;;;;;19.60;8.00;;;;;;;22.78;100.00;101834.22;7373571;19;20828;-40
2023/06/10 10:51:59;;;;;;;23.40;10.20;;;;;;;22.69;100.00;101823.66;7397737;19;20432;-43
2023/06/10 10:54:34;;;;;;;16.33;4.50;;;;;;;22.87;100.00;101815.00;7373589;19;20445;-42
2023/06/10 10:57:18;;;;;;;23.00;9.83;;;;;;;23.06;100.00;101802.88;7398997;19;20415;-39
2023/06/10 10:59:55;;;;;;;16.10;6.00;;;;;;;23.02;100.00;101798.44;7372207;19;20443;-40
2023/06/10 11:02:38;;;;;;;9.90;4.20;;;;;;;22.93;100.00;101777.38;7400051;19;20407;-40
2023/06/10 11:05:10;;;;;;;13.37;5.37;;;;;;;22.99;100.00;101774.78;7373818;19;20437;-41
2023/06/10 11:07:40;;;;;;;12.13;4.70;;;;;;;23.13;100.00;101766.06;7398757;19;20408;-42
2023/06/10 11:10:14;;;;;;;9.10;4.60;;;;;;;23.15;100.00;101772.22;7372121;19;20450;-40
2023/06/10 11:12:45;;;;;;;12.50;4.17;;;;;;;23.33;100.00;101769.69;7397584;19;20407;-41
2023/06/10 11:15:15;;;;;;;11.30;4.70;;;;;;;23.39;100.00;101737.28;7373805;19;20432;-41
2023/06/10 11:18:29;;;;;;;17.63;5.87;;;;;;;23.13;100.00;101740.59;7396410;19;20483;-40
2023/06/10 11:21:00;;;;;;;13.07;4.07;;;;;;;23.02;100.00;101753.72;7371486;19;20534;-41
2023/06/10 11:23:44;;;;;;;15.60;6.10;;;;;;;22.99;100.00;101737.94;7395705;19;20439;-41
2023/06/10 11:26:26;;;;;;;25.63;11.60;;;;;;;23.25;100.00;101723.13;7375873;19;20457;-41
2023/06/10 11:29:20;;;;;;;15.50;4.70;;;;;;;23.28;100.00;101728.41;7379515;19;20430;-39